BON63L FACT-FHSH
Flight info
| Callsign | BON63L |
|---|---|
| Flight time | N/A |
| Altitude | 34000 |
| Route | IMSOM1A IMSOM Q34 UVIKU DCT BUXIR DCT 28S010E 26S008E/N0462F360 18S002W DCT CB207 |
| Aircraft | A320/M-SDE3FGHIRWY/LB1 |
Departure
| Time | N/A |
|---|---|
| Airport | Cape Town International Airport (FACT) |
Arrival
| Time | 2026-05-05 17:47 |
|---|---|
| Airport | Saint Helena International Airport (FHSH) |
| Time | Latitude | Longitude | Altitude | Speed | Heading |
|---|---|---|---|---|---|
| 2026-05-05 15:39 | -25.13309 | 6.81608 | 34140 ft | 449 kts | 303° |
| 2026-05-05 15:40 | -25.09349 | 6.76276 | 34138 ft | 449 kts | 303° |
| 2026-05-05 15:40 | -25.05386 | 6.70954 | 34133 ft | 449 kts | 303° |
| 2026-05-05 15:41 | -25.01444 | 6.65650 | 34134 ft | 449 kts | 303° |
| 2026-05-05 15:41 | -24.97460 | 6.60310 | 34137 ft | 449 kts | 303° |
| 2026-05-05 15:42 | -24.93520 | 6.55016 | 34138 ft | 449 kts | 303° |
| 2026-05-05 15:42 | -24.89544 | 6.49675 | 34140 ft | 450 kts | 303° |
| 2026-05-05 15:43 | -24.85562 | 6.44339 | 34144 ft | 450 kts | 304° |
| 2026-05-05 15:43 | -24.81586 | 6.39021 | 34145 ft | 450 kts | 304° |
| 2026-05-05 15:44 | -24.77630 | 6.33736 | 34148 ft | 450 kts | 304° |
| 2026-05-05 15:44 | -24.73647 | 6.28436 | 34143 ft | 450 kts | 304° |
| 2026-05-05 15:45 | -24.69667 | 6.23130 | 34143 ft | 450 kts | 304° |
| 2026-05-05 15:45 | -24.65675 | 6.17810 | 34143 ft | 450 kts | 304° |
| 2026-05-05 15:46 | -24.61679 | 6.12502 | 34142 ft | 450 kts | 304° |
| 2026-05-05 15:46 | -24.57703 | 6.07230 | 34144 ft | 450 kts | 304° |
| 2026-05-05 15:47 | -24.53712 | 6.01918 | 34143 ft | 450 kts | 304° |
| 2026-05-05 15:47 | -24.49713 | 5.96618 | 34140 ft | 450 kts | 305° |
| 2026-05-05 15:48 | -24.45705 | 5.91321 | 34139 ft | 450 kts | 304° |
| 2026-05-05 15:48 | -24.41726 | 5.86057 | 34138 ft | 450 kts | 304° |
| 2026-05-05 15:49 | -24.37706 | 5.80749 | 34137 ft | 451 kts | 304° |
| 2026-05-05 15:49 | -24.33696 | 5.75454 | 34138 ft | 451 kts | 304° |
| 2026-05-05 15:50 | -24.29713 | 5.70201 | 34140 ft | 451 kts | 305° |
| 2026-05-05 15:50 | -24.25691 | 5.64912 | 34139 ft | 451 kts | 305° |
| 2026-05-05 15:51 | -24.22346 | 5.60522 | 34141 ft | 451 kts | 305° |
| 2026-05-05 15:51 | -24.18324 | 5.55248 | 34138 ft | 451 kts | 305° |
| 2026-05-05 15:52 | -24.14314 | 5.49970 | 34139 ft | 451 kts | 304° |
| 2026-05-05 15:52 | -24.10294 | 5.44683 | 34137 ft | 451 kts | 305° |
| 2026-05-05 15:53 | -24.06274 | 5.39414 | 34136 ft | 451 kts | 305° |
| 2026-05-05 15:53 | -24.02242 | 5.34154 | 34138 ft | 451 kts | 305° |
| 2026-05-05 15:54 | -23.98231 | 5.28915 | 34138 ft | 451 kts | 305° |
| 2026-05-05 15:54 | -23.94204 | 5.23648 | 34137 ft | 451 kts | 306° |
| 2026-05-05 15:55 | -23.90163 | 5.18387 | 34136 ft | 451 kts | 306° |
| 2026-05-05 15:55 | -23.86128 | 5.13127 | 34134 ft | 451 kts | 306° |
| 2026-05-05 15:56 | -23.82111 | 5.07890 | 34135 ft | 452 kts | 306° |
| 2026-05-05 15:56 | -23.78067 | 5.02620 | 34135 ft | 452 kts | 306° |
| 2026-05-05 15:57 | -23.74014 | 4.97360 | 34136 ft | 452 kts | 306° |
| 2026-05-05 15:57 | -23.69958 | 4.92108 | 34136 ft | 452 kts | 306° |
| 2026-05-05 15:58 | -23.65937 | 4.86886 | 34139 ft | 452 kts | 306° |
| 2026-05-05 15:58 | -23.61878 | 4.81641 | 34137 ft | 452 kts | 306° |
| 2026-05-05 15:59 | -23.57817 | 4.76400 | 34137 ft | 452 kts | 306° |
| 2026-05-05 15:59 | -23.53750 | 4.71144 | 34139 ft | 452 kts | 306° |
| 2026-05-05 16:00 | -23.49700 | 4.65919 | 34140 ft | 453 kts | 306° |
| 2026-05-05 16:00 | -23.45625 | 4.60665 | 34141 ft | 453 kts | 306° |
| 2026-05-05 16:01 | -23.41558 | 4.55411 | 34140 ft | 453 kts | 306° |
| 2026-05-05 16:01 | -23.37506 | 4.50195 | 34142 ft | 453 kts | 306° |
| 2026-05-05 16:02 | -23.33424 | 4.44957 | 34144 ft | 453 kts | 307° |
| 2026-05-05 16:02 | -23.29347 | 4.39732 | 34145 ft | 453 kts | 307° |
| 2026-05-05 16:03 | -23.25262 | 4.34489 | 34156 ft | 453 kts | 307° |
| 2026-05-05 16:03 | -23.21201 | 4.29282 | 34167 ft | 453 kts | 307° |
| 2026-05-05 16:04 | -23.17105 | 4.24041 | 34174 ft | 454 kts | 307° |
| 2026-05-05 16:04 | -23.13013 | 4.18817 | 34179 ft | 454 kts | 307° |
| 2026-05-05 16:05 | -23.08936 | 4.13616 | 34182 ft | 454 kts | 307° |
| 2026-05-05 16:05 | -23.04837 | 4.08383 | 34183 ft | 454 kts | 307° |
| 2026-05-05 16:06 | -23.00756 | 4.03183 | 34184 ft | 454 kts | 307° |
| 2026-05-05 16:06 | -22.96655 | 3.97953 | 34184 ft | 454 kts | 308° |
| 2026-05-05 16:07 | -22.92556 | 3.92729 | 34185 ft | 454 kts | 308° |
| 2026-05-05 16:07 | -22.88444 | 3.87504 | 34183 ft | 454 kts | 308° |
| 2026-05-05 16:08 | -22.84334 | 3.82284 | 34182 ft | 454 kts | 308° |
| 2026-05-05 16:08 | -22.80247 | 3.77109 | 34183 ft | 455 kts | 308° |
| 2026-05-05 16:09 | -22.76134 | 3.71894 | 34181 ft | 455 kts | 308° |
| 2026-05-05 16:09 | -22.72009 | 3.66682 | 34181 ft | 455 kts | 308° |
| 2026-05-05 16:10 | -22.67887 | 3.61485 | 34180 ft | 455 kts | 308° |
| 2026-05-05 16:10 | -22.63773 | 3.56282 | 34180 ft | 455 kts | 308° |
| 2026-05-05 16:11 | -22.59675 | 3.51106 | 34181 ft | 455 kts | 308° |
| 2026-05-05 16:12 | -22.51416 | 3.40702 | 34178 ft | 455 kts | 308° |
| 2026-05-05 16:13 | -22.41133 | 3.27764 | 34178 ft | 455 kts | 308° |
| 2026-05-05 16:13 | -22.37000 | 3.22581 | 34178 ft | 455 kts | 309° |
| 2026-05-05 16:14 | -22.28742 | 3.12252 | 34180 ft | 455 kts | 309° |
| 2026-05-05 16:15 | -22.20455 | 3.01873 | 34181 ft | 455 kts | 309° |
| 2026-05-05 16:16 | -22.12190 | 2.91570 | 34177 ft | 455 kts | 309° |
| 2026-05-05 16:17 | -22.05972 | 2.83815 | 34176 ft | 455 kts | 309° |
| 2026-05-05 16:18 | -21.99776 | 2.76104 | 34174 ft | 455 kts | 309° |
| 2026-05-05 16:19 | -21.93541 | 2.68377 | 34175 ft | 455 kts | 309° |
| 2026-05-05 16:19 | -21.87329 | 2.60681 | 34174 ft | 455 kts | 309° |
| 2026-05-05 16:20 | -21.79032 | 2.50388 | 34172 ft | 454 kts | 309° |
| 2026-05-05 16:22 | -21.68680 | 2.37595 | 34170 ft | 455 kts | 310° |
| 2026-05-05 16:23 | -21.60346 | 2.27321 | 34174 ft | 455 kts | 310° |
| 2026-05-05 16:23 | -21.54117 | 2.19651 | 34178 ft | 455 kts | 310° |
| 2026-05-05 16:24 | -21.49945 | 2.14516 | 34179 ft | 455 kts | 310° |
| 2026-05-05 16:25 | -21.43678 | 2.06835 | 34180 ft | 455 kts | 310° |
| 2026-05-05 16:25 | -21.37427 | 1.99164 | 34179 ft | 455 kts | 310° |
| 2026-05-05 16:26 | -21.29091 | 1.88952 | 34179 ft | 454 kts | 310° |
| 2026-05-05 16:27 | -21.24948 | 1.83890 | 34175 ft | 454 kts | 310° |
| 2026-05-05 16:27 | -21.20791 | 1.78806 | 34172 ft | 453 kts | 310° |
| 2026-05-05 16:28 | -21.16621 | 1.73718 | 34172 ft | 453 kts | 310° |
| 2026-05-05 16:28 | -21.12476 | 1.68669 | 34172 ft | 453 kts | 309° |
| 2026-05-05 16:29 | -21.08315 | 1.63596 | 34171 ft | 453 kts | 309° |
| 2026-05-05 16:29 | -21.04152 | 1.58532 | 34170 ft | 452 kts | 309° |
| 2026-05-05 16:30 | -21.00010 | 1.53503 | 34170 ft | 452 kts | 309° |
| 2026-05-05 16:30 | -20.95835 | 1.48441 | 34168 ft | 452 kts | 309° |
| 2026-05-05 16:31 | -20.91676 | 1.43400 | 34167 ft | 452 kts | 309° |
| 2026-05-05 16:31 | -20.87514 | 1.38353 | 34168 ft | 452 kts | 309° |
| 2026-05-05 16:32 | -20.83387 | 1.33341 | 34168 ft | 451 kts | 309° |
| 2026-05-05 16:32 | -20.79232 | 1.28305 | 34167 ft | 451 kts | 309° |
| 2026-05-05 16:33 | -20.75065 | 1.23277 | 34166 ft | 451 kts | 309° |
| 2026-05-05 16:33 | -20.70924 | 1.18280 | 34164 ft | 450 kts | 309° |
| 2026-05-05 16:34 | -20.67466 | 1.14106 | 34163 ft | 450 kts | 309° |
| 2026-05-05 16:34 | -20.62632 | 1.08264 | 34162 ft | 450 kts | 310° |
| 2026-05-05 16:35 | -20.59176 | 1.04105 | 34162 ft | 450 kts | 310° |
| 2026-05-05 16:35 | -20.54332 | 0.98271 | 34164 ft | 450 kts | 309° |
| 2026-05-05 16:36 | -20.50874 | 0.94120 | 34165 ft | 450 kts | 309° |
| 2026-05-05 16:36 | -20.46698 | 0.89109 | 34163 ft | 450 kts | 309° |
| 2026-05-05 16:37 | -20.42563 | 0.84140 | 34161 ft | 450 kts | 309° |
| 2026-05-05 16:37 | -20.38410 | 0.79144 | 34159 ft | 450 kts | 309° |
| 2026-05-05 16:38 | -20.34258 | 0.74161 | 34158 ft | 449 kts | 310° |
| 2026-05-05 16:38 | -20.30091 | 0.69184 | 34158 ft | 449 kts | 310° |
| 2026-05-05 16:39 | -20.25954 | 0.64240 | 34157 ft | 449 kts | 310° |
| 2026-05-05 16:39 | -20.21790 | 0.59262 | 34156 ft | 449 kts | 310° |
| 2026-05-05 16:40 | -20.17639 | 0.54286 | 34156 ft | 449 kts | 310° |
| 2026-05-05 16:40 | -20.13502 | 0.49340 | 34155 ft | 449 kts | 310° |
| 2026-05-05 16:41 | -20.09335 | 0.44385 | 34155 ft | 448 kts | 310° |
| 2026-05-05 16:41 | -20.05178 | 0.39437 | 34155 ft | 448 kts | 310° |
| 2026-05-05 16:42 | -20.01034 | 0.34508 | 34155 ft | 448 kts | 310° |
| 2026-05-05 16:42 | -19.96875 | 0.29561 | 34158 ft | 448 kts | 310° |
| 2026-05-05 16:43 | -19.92715 | 0.24620 | 34158 ft | 448 kts | 310° |
| 2026-05-05 16:43 | -19.88560 | 0.19682 | 34159 ft | 449 kts | 310° |
| 2026-05-05 16:44 | -19.84398 | 0.14741 | 34160 ft | 449 kts | 310° |
| 2026-05-05 16:44 | -19.80247 | 0.09820 | 34161 ft | 449 kts | 310° |
| 2026-05-05 16:45 | -19.76083 | 0.04884 | 34161 ft | 449 kts | 310° |
| 2026-05-05 16:45 | -19.71903 | -0.00060 | 34162 ft | 449 kts | 310° |
| 2026-05-05 16:46 | -19.67731 | -0.04987 | 34169 ft | 448 kts | 310° |
| 2026-05-05 16:46 | -19.63567 | -0.09912 | 34172 ft | 447 kts | 310° |
| 2026-05-05 16:47 | -19.59432 | -0.14791 | 34171 ft | 447 kts | 310° |
| 2026-05-05 16:47 | -19.55274 | -0.19690 | 34169 ft | 446 kts | 310° |
| 2026-05-05 16:48 | -19.51124 | -0.24590 | 34167 ft | 446 kts | 310° |
| 2026-05-05 16:48 | -19.46967 | -0.29485 | 34165 ft | 446 kts | 310° |
| 2026-05-05 16:49 | -19.42835 | -0.34337 | 34159 ft | 445 kts | 310° |
| 2026-05-05 16:49 | -19.38690 | -0.39223 | 34156 ft | 445 kts | 310° |
| 2026-05-05 16:50 | -19.34539 | -0.44095 | 34154 ft | 445 kts | 310° |
| 2026-05-05 16:50 | -19.30376 | -0.48970 | 34151 ft | 445 kts | 310° |
| 2026-05-05 16:51 | -19.26245 | -0.53807 | 34145 ft | 445 kts | 310° |
| 2026-05-05 16:51 | -19.22098 | -0.58672 | 34144 ft | 444 kts | 310° |
| 2026-05-05 16:52 | -19.17941 | -0.63539 | 34143 ft | 445 kts | 310° |
| 2026-05-05 16:52 | -19.13808 | -0.68363 | 34144 ft | 445 kts | 310° |
| 2026-05-05 16:53 | -19.09642 | -0.73228 | 34148 ft | 445 kts | 310° |
| 2026-05-05 16:53 | -19.05507 | -0.78063 | 34146 ft | 445 kts | 310° |
| 2026-05-05 16:54 | -19.01345 | -0.82925 | 34145 ft | 445 kts | 310° |
| 2026-05-05 16:54 | -18.97187 | -0.87774 | 34146 ft | 445 kts | 310° |
| 2026-05-05 16:55 | -18.93017 | -0.92628 | 34144 ft | 445 kts | 310° |
| 2026-05-05 16:55 | -18.88875 | -0.97447 | 34153 ft | 445 kts | 310° |
| 2026-05-05 16:56 | -18.84707 | -1.02294 | 34146 ft | 445 kts | 310° |
| 2026-05-05 16:56 | -18.80545 | -1.07135 | 34145 ft | 445 kts | 310° |
| 2026-05-05 16:57 | -18.76400 | -1.11940 | 34143 ft | 445 kts | 310° |
| 2026-05-05 16:57 | -18.72233 | -1.16774 | 34144 ft | 445 kts | 310° |
| 2026-05-05 16:58 | -18.68061 | -1.21613 | 34145 ft | 445 kts | 310° |
| 2026-05-05 16:58 | -18.63916 | -1.26422 | 34142 ft | 445 kts | 310° |
| 2026-05-05 16:59 | -18.59744 | -1.31257 | 34141 ft | 445 kts | 310° |
| 2026-05-05 16:59 | -18.55566 | -1.36087 | 34141 ft | 445 kts | 310° |
| 2026-05-05 17:00 | -18.51386 | -1.40915 | 34140 ft | 445 kts | 310° |
| 2026-05-05 17:00 | -18.47204 | -1.45743 | 34141 ft | 446 kts | 310° |
| 2026-05-05 17:01 | -18.43055 | -1.50535 | 34140 ft | 445 kts | 310° |
| 2026-05-05 17:01 | -18.38866 | -1.55357 | 34140 ft | 445 kts | 310° |
| 2026-05-05 17:02 | -18.34685 | -1.60172 | 34139 ft | 445 kts | 310° |
| 2026-05-05 17:02 | -18.30507 | -1.64997 | 34140 ft | 445 kts | 310° |
| 2026-05-05 17:03 | -18.26356 | -1.69778 | 34141 ft | 445 kts | 310° |
| 2026-05-05 17:03 | -18.22163 | -1.74587 | 34140 ft | 445 kts | 310° |
| 2026-05-05 17:04 | -18.17996 | -1.79356 | 34139 ft | 445 kts | 310° |
| 2026-05-05 17:04 | -18.13814 | -1.84159 | 34140 ft | 445 kts | 310° |
| 2026-05-05 17:05 | -18.09622 | -1.88975 | 34140 ft | 445 kts | 310° |
| 2026-05-05 17:05 | -18.05438 | -1.93778 | 34142 ft | 446 kts | 310° |
| 2026-05-05 17:06 | -18.01241 | -1.98569 | 34141 ft | 445 kts | 310° |
| 2026-05-05 17:06 | -17.97651 | -2.03782 | 34139 ft | 442 kts | 301° |
| 2026-05-05 17:07 | -17.94305 | -2.09202 | 34133 ft | 442 kts | 301° |
| 2026-05-05 17:07 | -17.90937 | -2.14623 | 34131 ft | 442 kts | 301° |
| 2026-05-05 17:08 | -17.87577 | -2.20037 | 34130 ft | 442 kts | 301° |
| 2026-05-05 17:08 | -17.84236 | -2.25426 | 34128 ft | 442 kts | 301° |
| 2026-05-05 17:09 | -17.80871 | -2.30838 | 34127 ft | 442 kts | 301° |
| 2026-05-05 17:09 | -17.77503 | -2.36243 | 34130 ft | 442 kts | 301° |
| 2026-05-05 17:10 | -17.74140 | -2.41647 | 34132 ft | 442 kts | 301° |
| 2026-05-05 17:10 | -17.70797 | -2.47021 | 34135 ft | 441 kts | 301° |
| 2026-05-05 17:11 | -17.67439 | -2.52413 | 34136 ft | 441 kts | 301° |
| 2026-05-05 17:11 | -17.64076 | -2.57797 | 34140 ft | 441 kts | 301° |
| 2026-05-05 17:12 | -17.60708 | -2.63185 | 34142 ft | 440 kts | 302° |
| 2026-05-05 17:12 | -17.57350 | -2.68558 | 34139 ft | 440 kts | 302° |
| 2026-05-05 17:13 | -17.54016 | -2.73885 | 34139 ft | 439 kts | 302° |
| 2026-05-05 17:13 | -17.50663 | -2.79247 | 34138 ft | 439 kts | 302° |
| 2026-05-05 17:14 | -17.47307 | -2.84598 | 34134 ft | 438 kts | 302° |
| 2026-05-05 17:14 | -17.43978 | -2.89906 | 34130 ft | 438 kts | 302° |
| 2026-05-05 17:15 | -17.40634 | -2.95241 | 34129 ft | 437 kts | 302° |
| 2026-05-05 17:15 | -17.37311 | -3.00544 | 34128 ft | 437 kts | 302° |
| 2026-05-05 17:16 | -17.33960 | -3.05874 | 34127 ft | 437 kts | 302° |
| 2026-05-05 17:16 | -17.30612 | -3.11196 | 34129 ft | 436 kts | 302° |
| 2026-05-05 17:17 | -17.27292 | -3.16469 | 34127 ft | 436 kts | 302° |
| 2026-05-05 17:17 | -17.23946 | -3.21772 | 34126 ft | 436 kts | 302° |
| 2026-05-05 17:18 | -17.20609 | -3.27070 | 34126 ft | 435 kts | 302° |
| 2026-05-05 17:18 | -17.17281 | -3.32330 | 34126 ft | 435 kts | 302° |
| 2026-05-05 17:19 | -17.13939 | -3.37619 | 34126 ft | 435 kts | 302° |
| 2026-05-05 17:19 | -17.10598 | -3.42912 | 34126 ft | 436 kts | 302° |
| 2026-05-05 17:20 | -17.07840 | -3.47272 | 34126 ft | 435 kts | 302° |
| 2026-05-05 17:20 | -17.04494 | -3.52556 | 34123 ft | 435 kts | 302° |
| 2026-05-05 17:21 | -17.01167 | -3.57808 | 34122 ft | 435 kts | 302° |
| 2026-05-05 17:22 | -16.96152 | -3.65729 | 34122 ft | 435 kts | 302° |
| 2026-05-05 17:22 | -16.92804 | -3.70995 | 34121 ft | 434 kts | 302° |
| 2026-05-05 17:23 | -16.89466 | -3.76260 | 34119 ft | 434 kts | 302° |
| 2026-05-05 17:23 | -16.86136 | -3.81513 | 34119 ft | 433 kts | 302° |
| 2026-05-05 17:24 | -16.82798 | -3.86750 | 34119 ft | 433 kts | 302° |
| 2026-05-05 17:24 | -16.79481 | -3.91951 | 34119 ft | 433 kts | 302° |
| 2026-05-05 17:24 | -16.77812 | -3.94576 | 33947 ft | 433 kts | 302° |
| 2026-05-05 17:25 | -16.76145 | -3.97198 | 33694 ft | 433 kts | 302° |
| 2026-05-05 17:25 | -16.75041 | -3.98935 | 33536 ft | 434 kts | 303° |
| 2026-05-05 17:25 | -16.72804 | -4.02448 | 33190 ft | 435 kts | 303° |
| 2026-05-05 17:25 | -16.71120 | -4.05088 | 32941 ft | 437 kts | 303° |
| 2026-05-05 17:26 | -16.69428 | -4.07734 | 32687 ft | 438 kts | 303° |
| 2026-05-05 17:26 | -16.67759 | -4.10348 | 32443 ft | 439 kts | 303° |
| 2026-05-05 17:26 | -16.66056 | -4.13012 | 32190 ft | 441 kts | 303° |
| 2026-05-05 17:26 | -16.64352 | -4.15681 | 31934 ft | 442 kts | 303° |
| 2026-05-05 17:27 | -16.62638 | -4.18369 | 31692 ft | 442 kts | 303° |
| 2026-05-05 17:27 | -16.60934 | -4.21037 | 31441 ft | 441 kts | 303° |
| 2026-05-05 17:27 | -16.59258 | -4.23660 | 30954 ft | 436 kts | 303° |
| 2026-05-05 17:27 | -16.57574 | -4.26287 | 30396 ft | 433 kts | 303° |
| 2026-05-05 17:28 | -16.55902 | -4.28893 | 29840 ft | 430 kts | 303° |
| 2026-05-05 17:28 | -16.54241 | -4.31480 | 29287 ft | 427 kts | 303° |
| 2026-05-05 17:28 | -16.52624 | -4.34005 | 28743 ft | 425 kts | 303° |
| 2026-05-05 17:28 | -16.50963 | -4.36603 | 28187 ft | 422 kts | 303° |
| 2026-05-05 17:29 | -16.49341 | -4.39141 | 27648 ft | 420 kts | 303° |
| 2026-05-05 17:29 | -16.47745 | -4.41633 | 27107 ft | 417 kts | 303° |
| 2026-05-05 17:29 | -16.46134 | -4.44146 | 26571 ft | 415 kts | 303° |
| 2026-05-05 17:29 | -16.44530 | -4.46647 | 26039 ft | 413 kts | 303° |
| 2026-05-05 17:30 | -16.42935 | -4.49134 | 25521 ft | 412 kts | 303° |
| 2026-05-05 17:30 | -16.41352 | -4.51603 | 25022 ft | 410 kts | 303° |
| 2026-05-05 17:30 | -16.39767 | -4.54072 | 24518 ft | 408 kts | 303° |
| 2026-05-05 17:30 | -16.38187 | -4.56531 | 24034 ft | 407 kts | 303° |
| 2026-05-05 17:31 | -16.36631 | -4.58949 | 23551 ft | 406 kts | 303° |
| 2026-05-05 17:31 | -16.35063 | -4.61387 | 23084 ft | 404 kts | 303° |
| 2026-05-05 17:31 | -16.33502 | -4.63818 | 22616 ft | 403 kts | 303° |
| 2026-05-05 17:31 | -16.31945 | -4.66241 | 22144 ft | 401 kts | 303° |
| 2026-05-05 17:32 | -16.30397 | -4.68646 | 21677 ft | 399 kts | 303° |
| 2026-05-05 17:32 | -16.28883 | -4.71056 | 21199 ft | 397 kts | 302° |
| 2026-05-05 17:32 | -16.27411 | -4.73476 | 20722 ft | 394 kts | 301° |
| 2026-05-05 17:32 | -16.25965 | -4.75900 | 20231 ft | 392 kts | 301° |
| 2026-05-05 17:33 | -16.24535 | -4.78308 | 19735 ft | 390 kts | 301° |
| 2026-05-05 17:33 | -16.23105 | -4.80705 | 19233 ft | 388 kts | 301° |
| 2026-05-05 17:33 | -16.21680 | -4.83080 | 18728 ft | 386 kts | 301° |
| 2026-05-05 17:33 | -16.20258 | -4.85435 | 18218 ft | 383 kts | 301° |
| 2026-05-05 17:34 | -16.18860 | -4.87746 | 17716 ft | 381 kts | 302° |
| 2026-05-05 17:34 | -16.17452 | -4.90069 | 17206 ft | 378 kts | 302° |
| 2026-05-05 17:34 | -16.16046 | -4.92383 | 16699 ft | 376 kts | 302° |
| 2026-05-05 17:34 | -16.14646 | -4.94685 | 16179 ft | 374 kts | 302° |
| 2026-05-05 17:35 | -16.13259 | -4.96970 | 15684 ft | 372 kts | 302° |
| 2026-05-05 17:35 | -16.11884 | -4.99237 | 15177 ft | 369 kts | 302° |
| 2026-05-05 17:35 | -16.10531 | -5.01464 | 14683 ft | 367 kts | 302° |
| 2026-05-05 17:35 | -16.09173 | -5.03704 | 14180 ft | 365 kts | 302° |
| 2026-05-05 17:36 | -16.07819 | -5.05934 | 13680 ft | 363 kts | 302° |
| 2026-05-05 17:36 | -16.06474 | -5.08149 | 13219 ft | 360 kts | 302° |
| 2026-05-05 17:36 | -16.05142 | -5.10343 | 12757 ft | 357 kts | 302° |
| 2026-05-05 17:36 | -16.03821 | -5.12516 | 12280 ft | 354 kts | 302° |
| 2026-05-05 17:37 | -16.02504 | -5.14681 | 11798 ft | 353 kts | 302° |
| 2026-05-05 17:37 | -16.01209 | -5.16813 | 11186 ft | 355 kts | 302° |
| 2026-05-05 17:37 | -15.99894 | -5.18979 | 10655 ft | 353 kts | 302° |
| 2026-05-05 17:37 | -15.98585 | -5.21132 | 10173 ft | 351 kts | 303° |
| 2026-05-05 17:38 | -15.97283 | -5.23271 | 9709 ft | 348 kts | 303° |
| 2026-05-05 17:38 | -15.95991 | -5.25393 | 9221 ft | 346 kts | 303° |
| 2026-05-05 17:38 | -15.94708 | -5.27502 | 8747 ft | 344 kts | 303° |
| 2026-05-05 17:38 | -15.93429 | -5.29598 | 8263 ft | 341 kts | 303° |
| 2026-05-05 17:39 | -15.92159 | -5.31679 | 7778 ft | 340 kts | 303° |
| 2026-05-05 17:39 | -15.90917 | -5.33716 | 7305 ft | 338 kts | 303° |
| 2026-05-05 17:39 | -15.89656 | -5.35783 | 6824 ft | 337 kts | 303° |
| 2026-05-05 17:39 | -15.88403 | -5.37837 | 6346 ft | 336 kts | 303° |
| 2026-05-05 17:40 | -15.87167 | -5.39861 | 6149 ft | 326 kts | 303° |
| 2026-05-05 17:40 | -15.85979 | -5.41812 | 6020 ft | 314 kts | 303° |
| 2026-05-05 17:40 | -15.84829 | -5.43699 | 5892 ft | 303 kts | 303° |
| 2026-05-05 17:40 | -15.83717 | -5.45520 | 5731 ft | 295 kts | 303° |
| 2026-05-05 17:41 | -15.82630 | -5.47303 | 5554 ft | 287 kts | 303° |
| 2026-05-05 17:41 | -15.81577 | -5.49030 | 5424 ft | 279 kts | 303° |
| 2026-05-05 17:41 | -15.80555 | -5.50703 | 5301 ft | 270 kts | 303° |
| 2026-05-05 17:41 | -15.79680 | -5.52391 | 5156 ft | 262 kts | 291° |
| 2026-05-05 17:42 | -15.79190 | -5.54179 | 5021 ft | 253 kts | 283° |
| 2026-05-05 17:42 | -15.78778 | -5.55954 | 4708 ft | 250 kts | 284° |
| 2026-05-05 17:42 | -15.78445 | -5.57671 | 4381 ft | 241 kts | 269° |
| 2026-05-05 17:42 | -15.78746 | -5.59310 | 4188 ft | 222 kts | 240° |
| 2026-05-05 17:43 | -15.79598 | -5.60544 | 4091 ft | 203 kts | 216° |
| 2026-05-05 17:43 | -15.80755 | -5.61281 | 3870 ft | 189 kts | 192° |
| 2026-05-05 17:43 | -15.82001 | -5.61619 | 3638 ft | 183 kts | 186° |
| 2026-05-05 17:43 | -15.83229 | -5.61932 | 3407 ft | 180 kts | 186° |
| 2026-05-05 17:44 | -15.84435 | -5.62238 | 3173 ft | 177 kts | 186° |
| 2026-05-05 17:44 | -15.85606 | -5.62533 | 2946 ft | 174 kts | 186° |
| 2026-05-05 17:44 | -15.86762 | -5.62823 | 2716 ft | 165 kts | 186° |
| 2026-05-05 17:44 | -15.87834 | -5.63093 | 2512 ft | 155 kts | 186° |
| 2026-05-05 17:45 | -15.88859 | -5.63407 | 2327 ft | 155 kts | 197° |
| 2026-05-05 17:45 | -15.89833 | -5.63914 | 2162 ft | 156 kts | 200° |
| 2026-05-05 17:45 | -15.90788 | -5.64421 | 1964 ft | 152 kts | 197° |
| 2026-05-05 17:45 | -15.91783 | -5.64706 | 1777 ft | 144 kts | 174° |
| 2026-05-05 17:46 | -15.92777 | -5.64694 | 1545 ft | 142 kts | 169° |
| 2026-05-05 17:46 | -15.93766 | -5.64637 | 1324 ft | 143 kts | 172° |
| 2026-05-05 17:46 | -15.94758 | -5.64629 | 1161 ft | 144 kts | 172° |
| 2026-05-05 17:46 | -15.95741 | -5.64592 | 1027 ft | 121 kts | 178° |
| 2026-05-05 17:47 | -15.96230 | -5.64584 | 1020 ft | 43 kts | 180° |
| 2026-05-05 17:47 | -15.96464 | -5.64579 | 1012 ft | 24 kts | 178° |
| 2026-05-05 17:47 | -15.96572 | -5.64578 | 1009 ft | 15 kts | 176° |
| 2026-05-05 17:47 | -15.96647 | -5.64548 | 1007 ft | 10 kts | 163° |
| 2026-05-05 17:48 | -15.96651 | -5.64581 | 1007 ft | 8 kts | 346° |
| 2026-05-05 17:48 | -15.96601 | -5.64577 | 1008 ft | 7 kts | 1° |
| 2026-05-05 17:48 | -15.96557 | -5.64576 | 1009 ft | 6 kts | 1° |
| 2026-05-05 17:48 | -15.96519 | -5.64575 | 1010 ft | 5 kts | 1° |
| 2026-05-05 17:49 | -15.96487 | -5.64577 | 1011 ft | 6 kts | 355° |
| 2026-05-05 17:49 | -15.96436 | -5.64581 | 1013 ft | 8 kts | 356° |
| 2026-05-05 17:49 | -15.96354 | -5.64585 | 1015 ft | 14 kts | 356° |
| 2026-05-05 17:49 | -15.96267 | -5.64584 | 1019 ft | 12 kts | 2° |
| 2026-05-05 17:50 | -15.96212 | -5.64622 | 1020 ft | 10 kts | 284° |
| 2026-05-05 17:50 | -15.96211 | -5.64695 | 1020 ft | 10 kts | 266° |
| 2026-05-05 17:50 | -15.96220 | -5.64765 | 1020 ft | 5 kts | 242° |
| 2026-05-05 17:50 | -15.96226 | -5.64770 | 1020 ft | 1 kts | 215° |
| 2026-05-05 17:51 | -15.96246 | -5.64779 | 1020 ft | 5 kts | 205° |
| 2026-05-05 17:51 | -15.96258 | -5.64812 | 1020 ft | 5 kts | 276° |
| 2026-05-05 17:51 | -15.96238 | -5.64826 | 1020 ft | 1 kts | 355° |
| 2026-05-05 17:51 | -15.96237 | -5.64825 | 1020 ft | 0 kts | 1° |
| 2026-05-05 18:25 | -15.96235 | -5.64825 | 1020 ft | 1 kts | 2° |
| 2026-05-05 18:25 | -15.96226 | -5.64806 | 1020 ft | 6 kts | 72° |
| 2026-05-05 18:25 | -15.96217 | -5.64760 | 1020 ft | 7 kts | 83° |